Time;durP1;ratioP1;P1;durP2;ratioP2;P2;SDS_P1;SDS_P2;PMS_P1;PMS_P2;Temp;Humidity;BMP_temperature;BMP_pressure;BME280_temperature;BME280_humidity;BME280_pressure;Samples;Min_cycle;Max_cycle;Signal;HPM_P1;HPM_P2
2021/10/06 00:01:48;;;;;;;3.88;1.00;;;;;;;15.11;59.57;100722.91;4962064;28;124926;-70
2021/10/06 00:04:15;;;;;;;2.55;1.05;;;;;;;15.11;59.42;100730.91;4967912;28;123794;-70
2021/10/06 00:06:42;;;;;;;4.00;1.30;;;;;;;15.10;59.61;100734.53;4965042;28;115083;-69
2021/10/06 00:09:09;;;;;;;3.20;0.98;;;;;;;15.11;59.58;100730.91;4967146;28;113845;-70
2021/10/06 00:11:36;;;;;;;3.50;1.20;;;;;;;15.11;59.54;100725.59;4965881;28;124032;-70
2021/10/06 00:14:03;;;;;;;3.53;1.40;;;;;;;15.11;59.43;100722.91;4964061;28;123803;-70
2021/10/06 00:16:31;;;;;;;2.45;1.05;;;;;;;15.11;59.57;100728.25;4967104;28;114366;-69
2021/10/06 00:18:58;;;;;;;3.30;1.00;;;;;;;15.11;59.58;100728.25;4967818;28;113247;-69
2021/10/06 00:21:26;;;;;;;4.47;1.13;;;;;;;15.11;59.61;100736.25;4951129;28;123369;-68
2021/10/06 00:23:53;;;;;;;4.47;1.05;;;;;;;15.08;59.47;100731.13;4957121;28;123667;-69
2021/10/06 00:26:20;;;;;;;4.38;1.30;;;;;;;15.07;59.60;100735.59;4960673;28;114159;-69
2021/10/06 00:28:47;;;;;;;5.03;1.25;;;;;;;15.05;59.50;100732.19;4962977;28;113835;-70
2021/10/06 00:31:14;;;;;;;3.50;1.10;;;;;;;15.05;59.50;100731.31;4951985;28;123197;-70
2021/10/06 00:33:42;;;;;;;4.65;1.20;;;;;;;15.05;59.52;100731.31;4963233;28;124747;-69
2021/10/06 00:36:10;;;;;;;4.30;1.42;;;;;;;15.05;59.45;100731.31;4963768;28;114123;-70
2021/10/06 00:38:38;;;;;;;3.70;1.10;;;;;;;15.04;59.50;100734.94;4966114;28;114539;-69
2021/10/06 00:41:05;;;;;;;3.80;1.20;;;;;;;15.03;59.72;100738.56;4958815;28;124159;-69
2021/10/06 00:43:33;;;;;;;5.32;1.20;;;;;;;15.04;59.65;100734.94;4950375;28;124268;-69
2021/10/06 00:46:00;;;;;;;4.18;1.20;;;;;;;15.04;59.67;100745.59;4963120;28;115860;-70
2021/10/06 00:48:27;;;;;;;4.72;1.30;;;;;;;15.04;59.50;100734.94;4966165;28;114738;-69
2021/10/06 00:50:54;;;;;;;3.78;1.10;;;;;;;15.04;59.70;100737.59;4960705;28;124103;-69
2021/10/06 00:53:26;;;;;;;5.20;1.30;;;;;;;15.03;59.39;100738.56;4960411;28;123720;-70
2021/10/06 00:55:54;;;;;;;4.10;1.00;;;;;;;15.02;59.47;100747.53;4957344;28;114245;-70
2021/10/06 00:58:21;;;;;;;3.65;1.20;;;;;;;14.98;59.39;100747.72;4966185;28;114317;-70
2021/10/06 01:00:49;;;;;;;4.35;1.48;;;;;;;14.95;59.37;100747.91;4967118;28;124136;-70
2021/10/06 01:03:20;;;;;;;2.80;1.02;;;;;;;14.92;59.45;100753.44;4958440;28;124899;-70
2021/10/06 01:05:53;;;;;;;4.35;1.20;;;;;;;14.90;59.29;100755.38;4963082;28;114142;-70
2021/10/06 01:08:20;;;;;;;5.03;1.30;;;;;;;14.88;59.27;100749.28;4961618;28;114019;-71
2021/10/06 01:10:48;;;;;;;3.65;1.10;;;;;;;14.85;59.32;100749.47;4967748;28;124463;-70
2021/10/06 01:13:16;;;;;;;3.55;1.15;;;;;;;14.83;59.46;100764.72;4949750;28;123361;-70
2021/10/06 01:15:44;;;;;;;3.65;1.30;;;;;;;14.82;59.41;100756.81;4968094;28;114337;-70
2021/10/06 01:18:11;;;;;;;2.85;1.13;;;;;;;14.80;59.52;100756.91;4961415;28;115038;-70
2021/10/06 01:20:39;;;;;;;4.82;1.20;;;;;;;14.77;59.47;100759.78;4951011;28;124378;-70
2021/10/06 01:23:06;;;;;;;3.45;1.10;;;;;;;14.75;59.37;100756.34;4963962;28;124201;-70
2021/10/06 01:25:33;;;;;;;5.13;1.38;;;;;;;14.72;59.42;100761.88;4969939;28;114170;-70
2021/10/06 01:28:01;;;;;;;7.47;1.52;;;;;;;14.71;59.55;100760.16;4962609;28;114684;-70
2021/10/06 01:30:28;;;;;;;2.78;0.98;;;;;;;14.69;59.53;100762.06;4963755;28;124154;-70
2021/10/06 01:32:55;;;;;;;3.60;1.00;;;;;;;14.68;59.59;100749.69;4967882;28;123074;-69
2021/10/06 01:35:24;;;;;;;5.55;1.33;;;;;;;14.66;59.52;100757.78;4968398;28;114871;-70
2021/10/06 01:37:51;;;;;;;5.50;1.23;;;;;;;14.65;59.64;100755.22;4966087;28;115331;-70
2021/10/06 01:40:22;;;;;;;4.60;1.15;;;;;;;14.64;59.54;100758.84;4962754;28;124150;-71
2021/10/06 01:42:52;;;;;;;4.70;1.13;;;;;;;14.65;59.51;100757.88;4964420;28;123758;-69
2021/10/06 01:45:28;;;;;;;5.20;1.00;;;;;;;14.64;59.50;100748.19;4968580;28;114316;-70
2021/10/06 01:48:07;;;;;;;4.15;1.35;;;;;;;14.63;59.58;100757.13;4964992;28;114142;-69
2021/10/06 01:50:37;;;;;;;7.93;1.50;;;;;;;14.62;59.63;100756.28;4963301;28;124055;-70
2021/10/06 01:53:04;;;;;;;2.15;1.10;;;;;;;14.63;59.77;100751.78;4970243;28;123885;-69
2021/10/06 01:55:32;;;;;;;6.00;1.40;;;;;;;14.62;59.69;100755.41;4959886;28;115093;-69
2021/10/06 01:58:03;;;;;;;6.28;1.20;;;;;;;14.63;59.72;100765.13;4949518;28;113833;-69
2021/10/06 02:00:31;;;;;;;4.78;1.33;;;;;;;14.62;59.75;100755.41;4949156;28;123331;-70
2021/10/06 02:02:59;;;;;;;4.70;1.30;;;;;;;14.62;59.45;100750.06;4967607;28;124282;-70
2021/10/06 02:05:27;;;;;;;4.75;1.42;;;;;;;14.62;59.63;100755.41;4966457;28;114186;-70
2021/10/06 02:07:54;;;;;;;8.05;1.30;;;;;;;14.62;59.56;100766.06;4964122;28;114546;-69
2021/10/06 02:10:21;;;;;;;4.28;1.30;;;;;;;14.62;59.60;100760.72;4966924;28;124954;-70
2021/10/06 02:12:48;;;;;;;5.03;1.40;;;;;;;14.62;59.65;100755.41;4968639;28;123893;-70
2021/10/06 02:15:15;;;;;;;4.13;1.30;;;;;;;14.63;59.66;100762.47;4951618;28;114708;-70
2021/10/06 02:17:42;;;;;;;6.07;1.50;;;;;;;14.63;59.75;100768.63;4970687;28;113895;-70
2021/10/06 02:20:10;;;;;;;3.60;1.30;;;;;;;14.67;59.85;100758.63;4964977;28;124881;-70
2021/10/06 02:22:37;;;;;;;3.90;1.27;;;;;;;14.69;59.89;100772.72;4966923;28;122794;-70
2021/10/06 02:25:06;;;;;;;5.63;1.70;;;;;;;14.71;59.77;100765.47;4967661;28;115625;-71
2021/10/06 02:27:33;;;;;;;5.13;1.27;;;;;;;14.73;59.68;100758.22;4954470;28;115241;-70
2021/10/06 02:30:00;;;;;;;5.70;1.52;;;;;;;14.75;59.73;100762.53;4965887;28;123994;-70
2021/10/06 02:32:28;;;;;;;4.55;1.50;;;;;;;14.76;59.71;100764.22;4953320;28;122829;-70
2021/10/06 02:34:55;;;;;;;3.65;1.33;;;;;;;14.79;59.59;100763.19;4965331;28;115098;-70
2021/10/06 02:37:22;;;;;;;7.38;1.40;;;;;;;14.80;59.63;100759.56;4949862;28;113848;-70
2021/10/06 02:39:50;;;;;;;4.95;1.17;;;;;;;14.82;59.71;100757.66;4949059;28;124697;-71
2021/10/06 02:42:18;;;;;;;7.63;1.17;;;;;;;14.83;59.63;100764.72;4963562;28;124054;-70
2021/10/06 02:44:45;;;;;;;3.78;1.27;;;;;;;14.85;59.72;100762.81;4964561;28;114610;-70
2021/10/06 02:47:13;;;;;;;5.28;1.20;;;;;;;14.86;59.64;100764.53;4971412;28;113931;-70
2021/10/06 02:49:41;;;;;;;5.32;1.10;;;;;;;14.87;59.70;100766.22;4965389;28;124328;-70
2021/10/06 02:52:08;;;;;;;6.88;1.75;;;;;;;14.88;59.65;100767.06;4969597;28;124610;-70
2021/10/06 02:54:35;;;;;;;5.43;1.23;;;;;;;14.87;59.74;100765.38;4963789;28;114901;-70
2021/10/06 02:57:04;;;;;;;3.88;1.23;;;;;;;14.86;59.72;100753.84;4965931;28;113545;-70
2021/10/06 02:59:32;;;;;;;6.95;1.73;;;;;;;14.86;59.67;100764.53;4967962;28;123874;-71
2021/10/06 03:01:59;;;;;;;5.97;1.08;;;;;;;14.87;59.65;100771.56;4965368;28;124035;-70
2021/10/06 03:04:27;;;;;;;5.38;1.23;;;;;;;14.87;59.83;100766.22;4962664;28;115258;-70
2021/10/06 03:06:54;;;;;;;6.10;1.52;;;;;;;14.88;59.77;100773.28;4963628;28;114064;-71
2021/10/06 03:09:21;;;;;;;3.33;1.02;;;;;;;14.89;59.62;100763.47;4963290;28;124116;-70
2021/10/06 03:11:49;;;;;;;5.30;1.30;;;;;;;14.90;59.58;100771.38;4946616;28;123324;-70
2021/10/06 03:14:16;;;;;;;3.38;0.98;;;;;;;14.91;59.76;100764.22;4964992;28;115617;-69
2021/10/06 03:16:43;;;;;;;5.53;1.27;;;;;;;14.93;59.57;100776.47;4963733;28;115500;-70
2021/10/06 03:19:10;;;;;;;4.07;1.27;;;;;;;14.95;59.53;100776.38;4964259;28;124113;-70
2021/10/06 03:21:37;;;;;;;8.35;1.30;;;;;;;14.96;59.52;100770.13;4951099;28;123649;-70
2021/10/06 03:24:05;;;;;;;2.63;1.08;;;;;;;14.97;59.53;100762.03;4965962;28;114912;-70
2021/10/06 03:26:32;;;;;;;6.05;1.10;;;;;;;14.98;59.54;100774.38;4964762;28;114464;-70
2021/10/06 03:28:59;;;;;;;3.00;1.17;;;;;;;15.03;59.43;100778.56;4964504;28;124534;-71
2021/10/06 03:31:27;;;;;;;5.20;1.20;;;;;;;15.03;59.43;100775.88;4962956;28;123916;-71
2021/10/06 03:33:54;;;;;;;3.35;1.40;;;;;;;15.04;59.28;100766.94;4968984;28;114602;-70
2021/10/06 03:36:21;;;;;;;4.93;1.00;;;;;;;15.05;59.36;100784.66;4966270;28;113937;-69
2021/10/06 03:38:48;;;;;;;4.15;1.00;;;;;;;15.07;59.32;100796.06;4968894;28;124014;-70
2021/10/06 03:41:16;;;;;;;4.22;1.02;;;;;;;15.08;59.07;100785.31;4960349;28;123818;-70
2021/10/06 03:43:43;;;;;;;4.38;1.13;;;;;;;15.09;59.27;100791.53;4960774;28;114476;-70
2021/10/06 03:46:10;;;;;;;3.25;1.00;;;;;;;15.09;59.08;100791.53;4969144;28;114415;-70
2021/10/06 03:48:37;;;;;;;2.95;1.10;;;;;;;15.10;59.06;100793.22;4951909;28;124423;-70
2021/10/06 03:51:04;;;;;;;2.92;0.93;;;;;;;15.10;59.23;100799.41;4963725;28;123728;-70
2021/10/06 03:53:31;;;;;;;5.50;1.05;;;;;;;15.10;59.18;100795.88;4969799;28;114211;-70
2021/10/06 03:55:58;;;;;;;2.78;1.02;;;;;;;15.10;59.12;100798.56;4965565;28;114202;-70
2021/10/06 03:58:25;;;;;;;3.85;1.00;;;;;;;15.08;59.18;100800.47;4950916;28;123456;-69
2021/10/06 04:00:52;;;;;;;5.80;1.10;;;;;;;15.08;59.17;100811.13;4965018;28;123803;-70
2021/10/06 04:03:21;;;;;;;3.03;0.95;;;;;;;15.07;59.14;100807.63;4965623;28;116101;-70
2021/10/06 04:05:48;;;;;;;4.43;1.13;;;;;;;15.06;59.06;100813.03;4966843;28;115324;-70
2021/10/06 04:08:17;;;;;;;2.70;0.93;;;;;;;15.03;59.23;100807.91;4961888;28;124246;-71
2021/10/06 04:10:45;;;;;;;3.80;0.82;;;;;;;14.99;59.17;100808.13;4969984;28;123917;-72
2021/10/06 04:13:12;;;;;;;7.45;1.20;;;;;;;14.97;59.19;100809.16;4966199;28;114935;-71
2021/10/06 04:15:39;;;;;;;2.85;0.98;;;;;;;14.94;59.37;100810.22;4963454;28;114872;-70
2021/10/06 04:18:06;;;;;;;3.70;0.98;;;;;;;14.93;59.44;100808.47;4959700;28;124051;-70
2021/10/06 04:20:34;;;;;;;3.97;1.20;;;;;;;14.91;59.38;100815.72;4961527;28;124012;-70
2021/10/06 04:23:02;;;;;;;4.57;1.27;;;;;;;14.87;59.38;100819.56;4966742;28;114514;-69
2021/10/06 04:25:29;;;;;;;1.73;1.00;;;;;;;14.85;59.60;100816.13;4965224;28;113694;-70
2021/10/06 04:27:56;;;;;;;3.55;0.88;;;;;;;14.84;59.57;100819.72;4963550;28;124114;-70
2021/10/06 04:30:23;;;;;;;3.25;1.00;;;;;;;14.82;59.56;100821.66;4963606;28;124598;-70
2021/10/06 04:32:50;;;;;;;4.88;1.00;;;;;;;14.81;59.73;100819.09;4958005;28;115347;-71
2021/10/06 04:35:17;;;;;;;4.28;1.20;;;;;;;14.79;59.65;100821.84;4967246;28;115590;-70
2021/10/06 04:37:45;;;;;;;2.80;1.05;;;;;;;14.77;59.67;100829.09;4965941;28;123983;-71
2021/10/06 04:40:12;;;;;;;3.97;0.90;;;;;;;14.76;59.81;100832.69;4966618;28;123681;-71
2021/10/06 04:42:39;;;;;;;3.50;1.05;;;;;;;14.75;59.95;100831.00;4962459;28;114175;-70
2021/10/06 04:45:07;;;;;;;3.53;1.20;;;;;;;14.75;59.83;100836.34;4966131;28;114764;-71
2021/10/06 04:47:37;;;;;;;4.93;1.13;;;;;;;14.74;59.91;100829.28;4955016;28;124732;-70
2021/10/06 04:50:05;;;;;;;4.22;1.08;;;;;;;14.72;59.79;100837.38;4955105;28;123187;-70
2021/10/06 04:52:33;;;;;;;4.00;1.42;;;;;;;14.71;59.93;100837.47;4968497;28;115494;-72
2021/10/06 04:55:00;;;;;;;3.20;0.90;;;;;;;14.71;59.95;100840.13;4966339;28;115286;-71
2021/10/06 04:57:27;;;;;;;4.68;1.05;;;;;;;14.71;59.97;100834.78;4969658;28;123654;-71
2021/10/06 04:59:54;;;;;;;4.57;1.00;;;;;;;14.71;60.05;100835.66;4969642;28;123953;-71
2021/10/06 05:02:21;;;;;;;4.35;1.10;;;;;;;14.70;59.99;100833.94;4963500;28;114749;-71
2021/10/06 05:04:48;;;;;;;3.83;1.10;;;;;;;14.71;60.02;100834.78;4962722;28;114042;-70
2021/10/06 05:07:15;;;;;;;5.13;1.20;;;;;;;14.69;60.01;100834.91;4970351;28;123865;-71
2021/10/06 05:09:43;;;;;;;2.10;0.82;;;;;;;14.68;60.03;100840.34;4947620;28;123792;-71
2021/10/06 05:12:10;;;;;;;4.15;1.08;;;;;;;14.67;60.08;100834.13;4961010;28;114072;-71
2021/10/06 05:14:38;;;;;;;7.20;1.45;;;;;;;14.66;60.19;100826.25;4947798;28;114012;-70
2021/10/06 05:17:05;;;;;;;4.13;1.60;;;;;;;14.64;60.09;100838.81;4964973;28;124165;-71
2021/10/06 05:19:32;;;;;;;3.38;1.17;;;;;;;14.63;60.12;100842.41;5003145;22;124220;-66
2021/10/06 05:22:00;;;;;;;3.20;1.10;;;;;;;14.62;60.16;100840.69;4993237;28;114547;-66
2021/10/06 05:24:27;;;;;;;7.18;1.30;;;;;;;14.59;60.24;100850.59;4991932;28;114723;-66
2021/10/06 05:26:54;;;;;;;6.13;1.20;;;;;;;14.58;60.33;100846.22;4976215;28;125332;-66
2021/10/06 05:29:21;;;;;;;3.47;0.93;;;;;;;14.56;60.35;100842.78;4968614;28;124142;-66
2021/10/06 05:31:48;;;;;;;5.95;1.08;;;;;;;14.54;60.28;100850.00;4960332;28;114522;-66
2021/10/06 05:34:15;;;;;;;2.80;1.10;;;;;;;14.53;60.35;100842.94;4961945;28;113963;-66
2021/10/06 05:36:43;;;;;;;4.13;1.23;;;;;;;14.51;60.40;100844.84;4940160;28;123558;-67
2021/10/06 05:39:10;;;;;;;3.42;1.10;;;;;;;14.51;60.54;100850.19;4942907;28;124861;-67
2021/10/06 05:41:37;;;;;;;6.22;1.30;;;;;;;14.51;60.59;100849.34;4948060;28;114137;-67
2021/10/06 05:44:05;;;;;;;3.40;0.90;;;;;;;14.49;60.62;100852.09;4959452;28;114839;-67
2021/10/06 05:46:32;;;;;;;5.57;1.10;;;;;;;14.49;60.55;100846.75;4966914;28;124193;-66
2021/10/06 05:48:59;;;;;;;7.22;1.33;;;;;;;14.48;60.47;100844.19;4969245;28;124801;-67
2021/10/06 05:51:31;;;;;;;3.28;1.00;;;;;;;14.47;60.69;100843.34;4955120;28;114389;-67
2021/10/06 05:53:58;;;;;;;3.22;1.13;;;;;;;14.47;60.57;100846.00;4961823;28;114001;-66
2021/10/06 05:56:25;;;;;;;4.88;0.85;;;;;;;14.45;60.58;100855.91;4972084;28;124721;-67
2021/10/06 05:58:52;;;;;;;6.82;1.50;;;;;;;14.46;60.68;100852.28;4960626;28;123743;-67
2021/10/06 06:01:19;;;;;;;3.50;1.02;;;;;;;14.47;60.75;100858.47;4965115;28;114954;-67
2021/10/06 06:03:47;;;;;;;4.05;1.10;;;;;;;14.47;60.64;100859.34;4966718;28;114699;-67
2021/10/06 06:06:14;;;;;;;3.67;1.00;;;;;;;14.48;60.83;100850.38;4971858;28;124117;-67
2021/10/06 06:08:41;;;;;;;3.50;0.95;;;;;;;14.48;60.77;100854.84;4958301;28;123144;-68
2021/10/06 06:11:08;;;;;;;3.67;1.10;;;;;;;14.48;60.84;100865.50;4972834;28;114695;-69
2021/10/06 06:13:35;;;;;;;3.42;0.98;;;;;;;14.46;60.67;100862.94;4971102;28;113884;-67
2021/10/06 06:16:04;;;;;;;5.60;1.10;;;;;;;14.46;60.70;100860.25;4971987;28;124097;-68
2021/10/06 06:18:32;;;;;;;3.88;1.10;;;;;;;14.45;60.81;100866.56;4955235;28;122814;-67
2021/10/06 06:20:59;;;;;;;5.05;1.90;;;;;;;14.45;60.83;100866.56;4970032;28;114586;-68
2021/10/06 06:23:28;;;;;;;4.25;1.00;;;;;;;14.45;61.05;100863.91;4971440;28;114317;-66
2021/10/06 06:25:55;;;;;;;4.45;1.20;;;;;;;14.46;60.79;100868.25;4970596;28;124012;-67
2021/10/06 06:28:23;;;;;;;6.32;1.30;;;;;;;14.45;60.78;100861.22;4970624;28;123945;-68
2021/10/06 06:30:50;;;;;;;2.78;1.10;;;;;;;14.45;60.95;100866.56;4970441;28;115328;-68
2021/10/06 06:33:17;;;;;;;6.03;1.38;;;;;;;14.44;60.91;100864.84;4968826;28;115057;-68
2021/10/06 06:35:44;;;;;;;4.80;1.25;;;;;;;14.43;60.87;100865.81;4938129;28;123741;-68
2021/10/06 06:38:11;;;;;;;2.72;1.15;;;;;;;14.44;60.82;100870.16;4968382;28;124007;-68
2021/10/06 06:40:41;;;;;;;4.22;1.20;;;;;;;14.43;60.94;100876.47;4966990;28;115128;-68
2021/10/06 06:43:09;;;;;;;4.28;1.38;;;;;;;14.41;60.86;100871.22;4964240;28;114231;-69
2021/10/06 06:45:37;;;;;;;4.90;1.38;;;;;;;14.39;60.98;100872.25;4958039;28;124458;-69
2021/10/06 06:48:05;;;;;;;5.68;1.27;;;;;;;14.38;61.16;100870.53;4965359;28;123809;-69
2021/10/06 06:50:44;;;;;;;3.83;1.30;;;;;;;14.37;61.14;100876.81;4953192;28;114347;-68
2021/10/06 06:53:12;;;;;;;3.65;1.30;;;;;;;14.36;61.07;100872.44;4953614;28;114314;-69
2021/10/06 06:55:39;;;;;;;3.05;1.20;;;;;;;14.34;61.12;100872.53;4945718;28;124625;-67
2021/10/06 06:58:06;;;;;;;5.57;1.40;;;;;;;14.33;61.27;100883.28;4952968;28;123192;-68
2021/10/06 07:00:33;;;;;;;3.90;1.58;;;;;;;14.32;61.32;100876.25;4955214;28;114282;-69
2021/10/06 07:03:01;;;;;;;6.47;1.48;;;;;;;14.33;61.46;100883.28;4952238;28;114229;-69
2021/10/06 07:05:30;;;;;;;2.55;1.30;;;;;;;14.33;61.44;100896.59;4955672;28;122911;-68
2021/10/06 07:07:57;;;;;;;2.92;1.13;;;;;;;14.32;61.48;100892.25;4952825;28;124219;-68
2021/10/06 07:10:24;;;;;;;4.47;1.50;;;;;;;14.32;61.58;100900.22;4936049;28;115533;-68
2021/10/06 07:12:51;;;;;;;8.75;1.63;;;;;;;14.34;61.76;100911.66;4956623;28;113885;-68
2021/10/06 07:15:18;;;;;;;4.03;1.50;;;;;;;14.36;61.45;100915.09;4935804;28;122888;-68
2021/10/06 07:17:45;;;;;;;2.67;1.30;;;;;;;14.38;61.55;100907.84;4955486;28;123831;-68
2021/10/06 07:20:13;;;;;;;2.90;1.30;;;;;;;14.39;61.69;100921.09;4952235;28;115106;-68
2021/10/06 07:22:40;;;;;;;2.47;1.30;;;;;;;14.41;61.33;100918.34;4956491;28;115206;-69
2021/10/06 07:25:07;;;;;;;4.95;1.33;;;;;;;14.42;61.76;100920.03;4941861;28;124206;-69
2021/10/06 07:27:34;;;;;;;3.47;1.25;;;;;;;14.45;61.79;100919.88;4951791;28;122721;-68
2021/10/06 07:30:03;;;;;;;3.40;1.13;;;;;;;14.47;61.73;100912.63;4960868;28;114115;-68
2021/10/06 07:32:31;;;;;;;4.53;1.38;;;;;;;14.48;61.75;100929.47;4966566;28;113812;-68
2021/10/06 07:34:58;;;;;;;3.63;1.27;;;;;;;14.49;61.76;100932.03;4948255;28;123146;-68
2021/10/06 07:37:25;;;;;;;4.32;1.20;;;;;;;14.51;61.83;100935.47;4950920;28;123320;-68
2021/10/06 07:39:52;;;;;;;5.47;1.63;;;;;;;14.52;61.89;100925.66;4968482;28;114884;-67
2021/10/06 07:42:19;;;;;;;2.50;1.10;;;;;;;14.54;61.75;100935.31;4948958;28;114251;-68
2021/10/06 07:44:47;;;;;;;4.40;1.33;;;;;;;14.56;61.88;100944.06;4962751;28;124530;-67
2021/10/06 07:47:15;;;;;;;2.67;1.27;;;;;;;14.57;61.87;100935.13;4971727;28;125262;-67
2021/10/06 07:49:43;;;;;;;3.08;1.77;;;;;;;14.59;61.92;100943.88;4950787;28;114627;-68
2021/10/06 07:52:10;;;;;;;3.35;1.20;;;;;;;14.63;61.92;100927.72;4942492;28;113996;-67
2021/10/06 07:54:38;;;;;;;2.55;1.23;;;;;;;14.63;62.03;100943.72;4970584;28;124146;-67
2021/10/06 07:57:05;;;;;;;2.40;1.10;;;;;;;14.63;61.73;100943.72;4972139;28;123741;-67
2021/10/06 07:59:34;;;;;;;2.42;1.25;;;;;;;14.63;61.92;100938.38;4971251;28;114644;-68
2021/10/06 08:02:01;;;;;;;4.05;1.10;;;;;;;14.65;62.14;100948.00;4972170;28;113880;-67
2021/10/06 08:04:29;;;;;;;2.45;1.10;;;;;;;14.66;61.99;100954.19;4963317;28;124998;-68
2021/10/06 08:06:56;;;;;;;2.22;1.20;;;;;;;14.67;61.95;100954.09;4972013;28;124553;-68
2021/10/06 08:09:23;;;;;;;1.90;1.20;;;;;;;14.67;62.05;100963.91;4969520;28;115136;-69
2021/10/06 08:11:50;;;;;;;2.85;1.15;;;;;;;14.67;61.99;100966.56;4962406;28;114973;-68
2021/10/06 08:14:18;;;;;;;1.77;0.95;;;;;;;14.67;62.04;100961.22;4958723;28;124339;-68
2021/10/06 08:16:45;;;;;;;2.05;1.20;;;;;;;14.67;62.15;100967.41;4955265;28;123847;-68
2021/10/06 08:19:12;;;;;;;2.13;1.10;;;;;;;14.69;62.17;100980.66;4959805;28;114642;-68
2021/10/06 08:21:39;;;;;;;3.33;1.20;;;;;;;14.71;62.27;100984.09;4973055;28;113702;-68
2021/10/06 08:24:07;;;;;;;2.40;1.00;;;;;;;14.70;62.03;100971.72;4964901;28;124772;-68
2021/10/06 08:26:34;;;;;;;2.67;1.30;;;;;;;14.72;62.26;100981.34;4974868;28;123752;-68
2021/10/06 08:29:02;;;;;;;3.03;1.05;;;;;;;14.74;62.45;100978.59;4952833;28;113089;-68
2021/10/06 08:31:29;;;;;;;2.00;1.13;;;;;;;14.76;62.48;100982.00;4946102;28;114509;-68
2021/10/06 08:33:56;;;;;;;2.22;1.20;;;;;;;14.80;62.35;100986.19;4950128;28;122883;-69
2021/10/06 08:36:23;;;;;;;1.90;1.17;;;;;;;14.83;62.48;100994.03;4966918;28;123728;-69
2021/10/06 08:38:51;;;;;;;3.05;1.20;;;;;;;14.85;62.47;101002.78;4967615;28;114637;-68
2021/10/06 08:41:18;;;;;;;2.45;1.20;;;;;;;14.84;62.37;100990.38;4963318;28;114178;-69
2021/10/06 08:43:45;;;;;;;1.80;1.05;;;;;;;14.84;62.40;101003.72;4962647;28;124059;-68
2021/10/06 08:46:12;;;;;;;2.55;1.10;;;;;;;14.85;62.49;101002.78;4958795;28;123712;-68
2021/10/06 08:48:39;;;;;;;2.72;1.10;;;;;;;14.88;62.70;100999.94;4959851;28;113229;-68
2021/10/06 08:51:07;;;;;;;3.25;1.20;;;;;;;14.90;62.64;101016.72;4942429;28;113057;-68
2021/10/06 08:53:48;;;;;;;3.97;1.45;;;;;;;14.91;62.55;101015.75;4959487;28;124911;-69
2021/10/06 08:56:16;;;;;;;1.55;1.00;;;;;;;14.92;62.55;101020.13;4964123;28;123903;-69
2021/10/06 08:58:43;;;;;;;3.53;1.20;;;;;;;14.92;62.58;101017.47;4958721;28;115576;-68
2021/10/06 09:01:27;;;;;;;2.30;1.08;;;;;;;14.91;62.73;101023.75;4966056;28;114710;-69
2021/10/06 09:04:00;;;;;;;2.65;1.40;;;;;;;14.90;62.62;101024.72;4968211;28;124079;-70
2021/10/06 09:06:39;;;;;;;1.83;1.23;;;;;;;14.89;62.49;101030.13;4967852;28;123890;-69
2021/10/06 09:09:19;;;;;;;1.63;1.10;;;;;;;14.88;62.67;101034.63;4955284;28;113272;-69
2021/10/06 09:11:49;;;;;;;2.00;1.23;;;;;;;14.87;62.67;101032.88;4932781;28;112883;-69
2021/10/06 09:14:17;;;;;;;2.58;1.30;;;;;;;14.88;62.70;101045.28;4951561;28;125401;-70
2021/10/06 09:16:46;;;;;;;2.90;1.42;;;;;;;14.90;62.74;101045.16;4968217;28;123903;-69
2021/10/06 09:19:53;;;;;;;3.20;1.23;;;;;;;14.91;62.76;101061.06;4971274;28;114489;-69
2021/10/06 09:22:22;;;;;;;3.30;1.40;;;;;;;14.94;62.82;101055.56;4967719;28;112902;-70
2021/10/06 09:25:05;;;;;;;3.00;1.30;;;;;;;14.97;62.79;101070.53;4969803;28;124887;-69
2021/10/06 09:27:38;;;;;;;2.10;1.35;;;;;;;15.01;63.12;101065.88;4943816;28;124537;-70
2021/10/06 09:30:11;;;;;;;4.90;1.77;;;;;;;15.03;62.95;101063.97;4954610;28;113237;-70
2021/10/06 09:32:42;;;;;;;2.40;1.50;;;;;;;15.05;62.90;101067.41;4943963;28;113801;-70
2021/10/06 09:35:16;;;;;;;3.15;1.50;;;;;;;15.07;62.99;101082.38;4932444;28;123193;-69
2021/10/06 09:37:53;;;;;;;3.65;1.65;;;;;;;15.09;63.16;101077.81;4944538;28;123788;-70
2021/10/06 09:40:26;;;;;;;2.88;1.80;;;;;;;15.14;63.15;101088.19;4947656;28;113586;-70
2021/10/06 09:43:02;;;;;;;2.97;1.80;;;;;;;15.18;63.10;101084.38;4966070;28;113971;-69
2021/10/06 09:45:35;;;;;;;2.00;1.60;;;;;;;15.23;63.29;101087.63;4950543;28;123945;-70
2021/10/06 09:48:04;;;;;;;2.88;1.70;;;;;;;15.28;63.26;101096.22;4945182;28;123800;-70
2021/10/06 09:50:33;;;;;;;2.95;1.65;;;;;;;15.31;63.20;101098.72;4961335;28;115331;-69
2021/10/06 09:53:14;;;;;;;3.63;2.13;;;;;;;15.34;63.26;101090.50;4949963;28;115595;-70
2021/10/06 09:55:44;;;;;;;3.22;1.90;;;;;;;15.37;63.20;101090.31;4969826;28;124767;-70
2021/10/06 09:58:14;;;;;;;2.72;2.03;;;;;;;15.43;63.21;101101.59;4951030;28;124196;-70
2021/10/06 10:00:42;;;;;;;2.78;2.05;;;;;;;15.46;63.11;101098.72;4961947;28;114471;-70
2021/10/06 10:03:11;;;;;;;3.85;2.17;;;;;;;15.51;63.21;101096.63;4992252;22;114052;-71
2021/10/06 10:05:40;;;;;;;3.10;2.30;;;;;;;15.54;63.18;101112.47;5017090;28;124990;-73
2021/10/06 10:08:09;;;;;;;4.25;2.20;;;;;;;15.56;63.19;101099.88;4974554;28;124185;-71
2021/10/06 10:10:37;;;;;;;2.85;2.10;;;;;;;15.60;63.35;101101.41;4970042;28;114301;-70
2021/10/06 10:13:05;;;;;;;4.90;2.25;;;;;;;15.69;63.31;101105.28;4973076;28;114044;-71
2021/10/06 10:15:34;;;;;;;3.60;2.05;;;;;;;15.72;63.39;101105.97;4967873;28;123877;-70
2021/10/06 10:18:04;;;;;;;2.70;1.90;;;;;;;15.77;63.40;101101.22;4953156;28;122728;-70
2021/10/06 10:20:34;;;;;;;4.05;2.13;;;;;;;15.84;63.37;101108.84;4959992;28;115665;-70
2021/10/06 10:23:03;;;;;;;5.03;2.15;;;;;;;15.90;63.43;101113.81;4958572;28;114223;-70
2021/10/06 10:25:43;;;;;;;4.30;2.08;;;;;;;15.94;63.33;101126.03;4959987;28;123963;-70
2021/10/06 10:28:21;;;;;;;3.45;2.00;;;;;;;15.98;63.32;101127.53;4955932;28;124135;-71
2021/10/06 10:30:54;;;;;;;3.17;2.03;;;;;;;16.01;63.30;101127.38;4945645;28;112996;-70
2021/10/06 10:33:46;;;;;;;3.72;2.10;;;;;;;16.04;63.10;101136.97;4972151;28;114055;-70
2021/10/06 10:36:40;;;;;;;3.63;2.20;;;;;;;16.08;63.07;101150.03;4933816;28;123095;-70
2021/10/06 10:39:35;;;;;;;3.80;2.15;;;;;;;16.10;63.12;101142.78;4951731;28;124313;-70
2021/10/06 10:42:03;;;;;;;3.93;2.20;;;;;;;16.12;63.03;101146.25;4954802;28;114993;-71
2021/10/06 10:44:41;;;;;;;3.65;2.30;;;;;;;16.16;63.11;101141.53;4967883;28;115170;-71
2021/10/06 10:47:08;;;;;;;4.40;2.10;;;;;;;16.20;63.13;101152.88;4962143;28;123095;-70
2021/10/06 10:49:52;;;;;;;3.45;2.28;;;;;;;16.24;63.17;101159.78;4971354;28;122928;-72
2021/10/06 10:52:47;;;;;;;3.97;2.42;;;;;;;16.24;62.95;101159.78;4956872;28;115094;-71
2021/10/06 10:55:17;;;;;;;4.15;2.17;;;;;;;16.22;62.87;101156.31;4962278;28;113866;-69
2021/10/06 10:57:44;;;;;;;5.40;2.00;;;;;;;16.19;62.80;101160.06;4962382;28;123711;-71
2021/10/06 11:00:32;;;;;;;3.58;2.10;;;;;;;16.13;62.57;101163.13;4967817;28;124572;-70
2021/10/06 11:03:00;;;;;;;4.03;2.33;;;;;;;16.10;62.53;101174.00;4955406;28;113079;-71
2021/10/06 11:05:45;;;;;;;4.80;2.28;;;;;;;16.05;62.68;101160.94;4946958;28;113766;-70
2021/10/06 11:08:33;;;;;;;2.90;2.03;;;;;;;16.01;62.87;101164.75;4967303;28;124224;-71
2021/10/06 11:11:11;;;;;;;3.53;2.05;;;;;;;15.98;62.85;101150.75;4939498;28;123935;-71
2021/10/06 11:13:40;;;;;;;3.40;2.20;;;;;;;15.95;62.79;101151.78;4945540;28;114865;-71
2021/10/06 11:16:08;;;;;;;7.25;2.15;;;;;;;15.93;62.84;101145.66;4945614;28;113062;-71
2021/10/06 11:18:41;;;;;;;5.57;2.13;;;;;;;15.91;62.89;101152.91;4984986;22;123650;-77
2021/10/06 11:21:08;;;;;;;3.63;2.10;;;;;;;15.91;62.73;101152.91;4958946;28;124289;-78
2021/10/06 11:23:45;;;;;;;3.42;2.25;;;;;;;15.90;63.10;101151.22;4964497;28;114156;-78
2021/10/06 11:26:33;;;;;;;6.32;2.47;;;;;;;15.90;63.00;101145.88;4959371;28;113854;-77